Time;durP1;ratioP1;P1;durP2;ratioP2;P2;SDS_P1;SDS_P2;PMS_P1;PMS_P2;Temp;Humidity;BMP_temperature;BMP_pressure;BME280_temperature;BME280_humidity;BME280_pressure;Samples;Min_cycle;Max_cycle;Signal;HPM_P1;HPM_P2
2021/12/09 00:01:33;;;;;;;70.32;62.65;;;;;;;-2.27;71.67;94551.97;5076491;28;20227;-69
2021/12/09 00:04:05;;;;;;;73.88;65.85;;;;;;;-2.32;72.04;94563.63;5076355;28;20197;-68
2021/12/09 00:06:32;;;;;;;79.45;67.57;;;;;;;-2.30;71.97;94558.75;5076218;28;20279;-69
2021/12/09 00:09:01;;;;;;;80.90;68.57;;;;;;;-2.31;72.63;94554.44;5076875;28;20185;-69
2021/12/09 00:11:28;;;;;;;76.57;65.82;;;;;;;-2.28;72.23;94550.38;5076812;28;20200;-69
2021/12/09 00:13:57;;;;;;;74.07;64.97;;;;;;;-2.26;72.55;94548.19;5076461;28;20299;-69
2021/12/09 00:16:24;;;;;;;73.25;65.32;;;;;;;-2.24;72.64;94541.41;5076027;28;20219;-69
2021/12/09 00:18:51;;;;;;;84.28;72.47;;;;;;;-2.25;72.02;94550.59;5077084;28;20230;-69
2021/12/09 00:21:17;;;;;;;83.32;73.95;;;;;;;-2.28;72.40;94534.16;5092781;28;20200;-69
2021/12/09 00:23:44;;;;;;;82.13;73.10;;;;;;;-2.32;72.56;94528.53;5076561;28;20200;-69
2021/12/09 00:26:11;;;;;;;78.10;69.47;;;;;;;-2.28;72.59;94544.97;5075919;28;20197;-69
2021/12/09 00:28:38;;;;;;;77.70;69.25;;;;;;;-2.30;72.52;94528.22;5076788;28;20209;-70
2021/12/09 00:31:06;;;;;;;79.63;71.05;;;;;;;-2.28;72.38;94521.47;5076692;28;20185;-69
2021/12/09 00:33:40;;;;;;;78.07;69.68;;;;;;;-2.31;72.76;94527.44;5076227;28;20514;-69
2021/12/09 00:36:06;;;;;;;79.90;71.40;;;;;;;-2.32;72.61;94516.91;5076711;28;20181;-69
2021/12/09 00:38:39;;;;;;;83.85;74.95;;;;;;;-2.35;72.53;94512.88;5076665;28;20193;-68
2021/12/09 00:41:08;;;;;;;83.32;74.55;;;;;;;-2.28;73.15;94504.44;5076541;28;20276;-69
2021/12/09 00:43:35;;;;;;;80.65;72.03;;;;;;;-2.21;73.29;94507.63;5092480;28;20227;-69
2021/12/09 00:46:01;;;;;;;81.45;73.00;;;;;;;-2.10;73.03;94506.41;5075509;28;20207;-68
2021/12/09 00:48:31;;;;;;;82.78;74.00;;;;;;;-2.02;73.26;94516.59;5076253;28;20205;-68
2021/12/09 00:50:59;;;;;;;82.55;73.97;;;;;;;-1.98;73.54;94523.03;5075463;28;20196;-69
2021/12/09 00:53:25;;;;;;;81.72;73.20;;;;;;;-1.92;73.51;94512.97;5076064;28;20242;-69
2021/12/09 00:55:52;;;;;;;80.32;72.03;;;;;;;-1.84;73.48;94515.03;5075410;28;20189;-69
2021/12/09 00:58:20;;;;;;;81.53;73.07;;;;;;;-1.82;73.05;94510.13;5075562;28;20211;-69
2021/12/09 01:00:47;;;;;;;82.40;73.80;;;;;;;-1.82;73.45;94517.44;5075749;28;20613;-69
2021/12/09 01:03:14;;;;;;;81.05;72.65;;;;;;;-1.80;73.20;94516.06;5075199;28;20189;-69
2021/12/09 01:05:44;;;;;;;80.25;72.32;;;;;;;-1.73;73.36;94515.72;5075736;28;20193;-69
2021/12/09 01:08:11;;;;;;;78.47;70.35;;;;;;;-1.69;73.52;94524.84;5092201;28;20216;-69
2021/12/09 01:10:39;;;;;;;80.30;72.03;;;;;;;-1.62;73.61;94525.31;5075210;28;20189;-68
2021/12/09 01:13:05;;;;;;;75.45;67.55;;;;;;;-1.57;74.07;94527.13;5075757;28;20192;-68
2021/12/09 01:15:32;;;;;;;73.50;65.90;;;;;;;-1.54;74.60;94518.44;5075969;28;20185;-68
2021/12/09 01:17:59;;;;;;;75.72;68.03;;;;;;;-1.46;74.27;94524.00;5075954;28;20208;-69
2021/12/09 01:20:26;;;;;;;72.22;64.75;;;;;;;-1.38;74.08;94519.03;5075772;28;20525;-69
2021/12/09 01:22:55;;;;;;;70.05;62.97;;;;;;;-1.35;74.18;94518.47;5075831;28;20204;-69
2021/12/09 01:25:24;;;;;;;71.30;64.10;;;;;;;-1.33;74.09;94519.00;5074931;28;20223;-69
2021/12/09 01:27:53;;;;;;;68.15;61.25;;;;;;;-1.37;74.26;94518.78;5075604;28;20213;-69
2021/12/09 01:30:21;;;;;;;72.78;65.25;;;;;;;-1.35;73.22;94521.97;5076103;28;20196;-69
2021/12/09 01:32:51;;;;;;;73.03;65.55;;;;;;;-1.33;73.10;94521.69;5074301;28;20679;-69
2021/12/09 01:35:20;;;;;;;72.60;65.22;;;;;;;-1.33;73.93;94525.22;5075222;28;20201;-69
2021/12/09 01:37:47;;;;;;;75.35;67.72;;;;;;;-1.29;73.85;94526.22;5090783;28;20200;-69
2021/12/09 01:40:16;;;;;;;72.60;65.10;;;;;;;-1.28;73.78;94527.03;5091457;28;20193;-69
2021/12/09 01:42:43;;;;;;;72.05;64.82;;;;;;;-1.30;73.76;94526.53;5075369;28;20189;-69
2021/12/09 01:45:12;;;;;;;72.65;65.18;;;;;;;-1.29;73.79;94515.41;5075578;28;20189;-69
2021/12/09 01:47:39;;;;;;;67.50;60.55;;;;;;;-1.28;73.34;94502.69;5074278;28;20221;-69
2021/12/09 01:50:08;;;;;;;63.90;57.50;;;;;;;-1.26;73.09;94512.13;5075064;28;20173;-68
2021/12/09 01:52:35;;;;;;;63.30;57.05;;;;;;;-1.23;73.18;94514.25;5091023;28;20228;-68
2021/12/09 01:55:02;;;;;;;62.08;55.70;;;;;;;-1.26;73.20;94508.63;5074310;28;20185;-68
2021/12/09 01:57:50;;;;;;;60.30;54.17;;;;;;;-1.30;73.25;94515.72;5075197;28;20192;-68
2021/12/09 02:00:20;;;;;;;58.38;52.38;;;;;;;-1.29;73.73;94501.88;5075286;28;20200;-68
2021/12/09 02:02:47;;;;;;;59.53;53.55;;;;;;;-1.32;73.10;94499.75;5074260;28;20193;-68
2021/12/09 02:05:15;;;;;;;57.88;52.08;;;;;;;-1.31;73.24;94500.56;5075384;28;20185;-69
2021/12/09 02:07:42;;;;;;;59.92;53.75;;;;;;;-1.31;72.78;94498.69;5075474;28;20219;-69
2021/12/09 02:10:11;;;;;;;56.33;50.65;;;;;;;-1.27;73.06;94498.88;5075296;28;20489;-69
2021/12/09 02:12:39;;;;;;;58.70;52.70;;;;;;;-1.27;73.14;94502.41;5074750;28;20181;-69
2021/12/09 02:15:07;;;;;;;59.60;53.63;;;;;;;-1.28;73.21;94494.56;5075001;28;20196;-69
2021/12/09 02:17:34;;;;;;;59.95;53.95;;;;;;;-1.29;73.06;94499.16;5074188;28;20197;-69
2021/12/09 02:20:02;;;;;;;58.03;52.03;;;;;;;-1.30;73.42;94505.69;5074842;28;20177;-69
2021/12/09 02:22:31;;;;;;;58.97;52.75;;;;;;;-1.23;73.51;94508.03;5090916;28;20193;-69
2021/12/09 02:24:59;;;;;;;57.40;51.65;;;;;;;-1.22;73.80;94526.66;5074050;28;20201;-69
2021/12/09 02:27:26;;;;;;;60.90;54.60;;;;;;;-1.19;73.34;94527.19;5075068;28;20192;-69
2021/12/09 02:29:54;;;;;;;58.28;52.17;;;;;;;-1.19;73.22;94521.78;5074873;28;20196;-69
2021/12/09 02:32:21;;;;;;;61.15;54.63;;;;;;;-1.19;73.16;94511.75;5074926;28;20181;-69
2021/12/09 02:34:48;;;;;;;59.95;53.65;;;;;;;-1.17;72.55;94523.09;5090787;28;20185;-69
2021/12/09 02:37:15;;;;;;;59.78;53.25;;;;;;;-1.16;73.32;94519.31;5074755;28;20598;-69
2021/12/09 02:39:44;;;;;;;61.53;54.97;;;;;;;-1.12;72.65;94517.63;5073829;28;20204;-69
2021/12/09 02:42:11;;;;;;;61.75;55.05;;;;;;;-1.11;72.93;94513.00;5073729;28;20212;-69
2021/12/09 02:44:38;;;;;;;60.38;53.67;;;;;;;-1.18;72.55;94507.16;5074681;28;20185;-69
2021/12/09 02:47:05;;;;;;;63.55;56.75;;;;;;;-1.26;72.99;94512.13;5074251;28;20197;-69
2021/12/09 02:49:33;;;;;;;62.65;55.85;;;;;;;-1.27;72.97;94517.81;5077904;28;20224;-69
2021/12/09 02:52:01;;;;;;;60.08;54.00;;;;;;;-1.26;73.31;94511.31;5078535;28;20186;-69
2021/12/09 02:54:29;;;;;;;60.15;54.05;;;;;;;-1.22;73.17;94501.53;5094040;28;20589;-69
2021/12/09 02:56:59;;;;;;;63.17;56.55;;;;;;;-1.25;73.03;94500.19;5077471;28;20193;-69
2021/12/09 02:59:26;;;;;;;63.67;56.97;;;;;;;-1.24;73.54;94509.91;5078467;28;20185;-69
2021/12/09 03:01:57;;;;;;;62.72;56.47;;;;;;;-1.18;73.69;94509.84;5077856;28;20197;-69
2021/12/09 03:04:26;;;;;;;63.20;56.53;;;;;;;-1.18;72.86;94507.94;5078404;28;20204;-69
2021/12/09 03:06:54;;;;;;;62.78;56.25;;;;;;;-1.19;73.65;94519.88;5077369;28;20211;-69
2021/12/09 03:09:22;;;;;;;63.55;56.95;;;;;;;-1.12;73.40;94523.03;5077544;28;20224;-69
2021/12/09 03:11:55;;;;;;;61.55;55.15;;;;;;;-1.13;73.34;94521.41;5077314;28;20518;-69
2021/12/09 03:14:24;;;;;;;62.95;56.13;;;;;;;-1.14;73.04;94508.16;5078133;28;20201;-69
2021/12/09 03:16:51;;;;;;;60.80;54.30;;;;;;;-1.16;72.67;94513.06;5077174;28;20197;-69
2021/12/09 03:19:19;;;;;;;60.45;54.03;;;;;;;-1.20;73.74;94523.66;5077755;28;20182;-69
2021/12/09 03:21:47;;;;;;;61.30;54.83;;;;;;;-1.22;73.65;94518.56;5078069;28;20204;-69
2021/12/09 03:24:16;;;;;;;62.05;55.38;;;;;;;-1.16;73.65;94515.75;5076788;28;20212;-69
2021/12/09 03:26:44;;;;;;;61.72;54.67;;;;;;;-1.17;73.61;94522.28;5093915;28;20189;-69
2021/12/09 03:29:13;;;;;;;60.45;53.85;;;;;;;-1.15;73.70;94526.31;5076849;28;20216;-69
2021/12/09 03:31:43;;;;;;;58.97;52.70;;;;;;;-1.18;73.43;94524.19;5077833;28;20200;-69
2021/12/09 03:34:11;;;;;;;57.28;51.28;;;;;;;-1.16;73.19;94519.31;5077787;28;20205;-69
2021/12/09 03:36:38;;;;;;;56.78;50.80;;;;;;;-1.16;73.23;94516.59;5077811;28;20189;-69
2021/12/09 03:39:08;;;;;;;55.30;49.53;;;;;;;-1.13;73.28;94518.69;5077957;28;20200;-68
2021/12/09 03:41:35;;;;;;;54.95;49.22;;;;;;;-1.18;73.22;94509.84;5077734;28;20185;-68
2021/12/09 03:44:02;;;;;;;55.85;49.78;;;;;;;-1.18;73.19;94510.66;5093770;28;20206;-68
2021/12/09 03:46:28;;;;;;;55.15;49.45;;;;;;;-1.20;72.84;94504.72;5076751;28;20438;-68
2021/12/09 03:48:57;;;;;;;55.33;49.63;;;;;;;-1.18;73.12;94499.03;5075313;28;20436;-68
2021/12/09 03:51:23;;;;;;;52.95;47.45;;;;;;;-1.17;73.50;94506.84;5076445;28;20212;-68
2021/12/09 03:53:53;;;;;;;56.20;50.28;;;;;;;-1.16;73.35;94516.59;5075810;28;20442;-69
2021/12/09 03:56:20;;;;;;;54.22;48.63;;;;;;;-1.07;74.09;94522.16;5077468;28;20189;-69
2021/12/09 03:58:47;;;;;;;55.75;49.65;;;;;;;-1.03;73.33;94523.16;5075965;28;20205;-69
2021/12/09 04:01:13;;;;;;;55.80;49.85;;;;;;;-1.04;72.61;94535.09;5093540;28;20197;-68
2021/12/09 04:03:40;;;;;;;56.38;50.35;;;;;;;-1.07;72.88;94524.84;5093410;28;20216;-68
2021/12/09 04:06:08;;;;;;;54.95;49.05;;;;;;;-1.06;73.45;94523.75;5093122;28;20204;-68
2021/12/09 04:08:35;;;;;;;54.33;48.50;;;;;;;-1.06;73.20;94527.25;5076161;28;20213;-68
2021/12/09 04:11:02;;;;;;;55.08;49.20;;;;;;;-1.02;73.31;94527.47;5077256;28;20196;-68
2021/12/09 04:13:30;;;;;;;55.10;49.28;;;;;;;-1.00;72.93;94523.38;5076560;28;20193;-68
2021/12/09 04:15:57;;;;;;;54.97;49.13;;;;;;;-1.00;73.20;94517.97;5076195;28;20208;-69
2021/12/09 04:18:24;;;;;;;54.40;48.55;;;;;;;-0.97;73.62;94524.72;5092965;28;20200;-69
2021/12/09 04:20:51;;;;;;;54.60;48.63;;;;;;;-0.93;73.25;94535.75;5075980;28;20201;-69
2021/12/09 04:23:19;;;;;;;54.08;48.38;;;;;;;-0.92;73.48;94537.34;5076200;28;20200;-69
2021/12/09 04:25:46;;;;;;;55.72;49.85;;;;;;;-0.91;73.36;94528.94;5093453;28;20208;-69
2021/12/09 04:28:13;;;;;;;57.63;51.33;;;;;;;-0.95;73.32;94532.53;5092713;28;20225;-68
2021/12/09 04:30:40;;;;;;;57.45;51.15;;;;;;;-0.96;73.41;94526.31;5076724;28;20189;-68
2021/12/09 04:33:07;;;;;;;57.08;50.22;;;;;;;-0.89;73.91;94529.44;5076571;28;20532;-70
2021/12/09 04:35:34;;;;;;;56.10;50.20;;;;;;;-0.92;73.02;94526.53;5076411;28;20192;-70
2021/12/09 04:38:00;;;;;;;57.53;51.53;;;;;;;-0.91;73.19;94533.53;5076721;28;20181;-70
2021/12/09 04:40:29;;;;;;;56.08;50.30;;;;;;;-0.94;73.13;94544.94;5075742;28;20204;-69
2021/12/09 04:42:55;;;;;;;56.58;50.50;;;;;;;-0.91;73.40;94534.34;5092337;28;20598;-67
2021/12/09 04:45:22;;;;;;;66.75;59.78;;;;;;;-0.90;73.46;94535.16;5092203;28;20205;-70
2021/12/09 04:47:49;;;;;;;70.25;62.97;;;;;;;-0.91;73.09;94552.50;5092044;28;20687;-70
2021/12/09 04:50:16;;;;;;;68.18;61.08;;;;;;;-0.91;73.26;94544.38;5092347;28;20267;-70
2021/12/09 04:52:43;;;;;;;59.60;53.17;;;;;;;-0.90;74.05;94546.81;5075069;28;20237;-70
2021/12/09 04:55:10;;;;;;;61.10;54.70;;;;;;;-0.86;73.72;94550.53;5075381;28;20597;-70
2021/12/09 04:57:39;;;;;;;64.28;57.72;;;;;;;-0.88;73.86;94550.00;5076038;28;20204;-70
2021/12/09 05:00:08;;;;;;;67.35;60.13;;;;;;;-0.87;74.04;94550.81;5075339;28;20197;-69
2021/12/09 05:02:48;;;;;;;64.78;57.78;;;;;;;-0.85;73.71;94554.84;5075709;28;20187;-69
2021/12/09 05:05:15;;;;;;;57.80;47.45;;;;;;;-0.85;73.75;94552.13;5076157;28;20291;-70
2021/12/09 05:07:42;;;;;;;60.03;49.88;;;;;;;-0.80;73.70;94549.38;5076068;28;20204;-69
2021/12/09 05:10:10;;;;;;;59.83;50.85;;;;;;;-0.78;73.79;94551.75;5075162;28;20234;-69
2021/12/09 05:12:36;;;;;;;57.08;48.63;;;;;;;-0.81;73.59;94547.72;5074174;28;20207;-70
2021/12/09 05:15:05;;;;;;;56.67;47.75;;;;;;;-0.76;73.61;94552.28;5092093;28;20197;-70
2021/12/09 05:17:32;;;;;;;52.08;42.58;;;;;;;-0.76;73.82;94547.69;5075699;28;20185;-70
2021/12/09 05:19:59;;;;;;;52.78;43.85;;;;;;;-0.73;73.90;94557.09;5075279;28;20203;-70
2021/12/09 05:22:26;;;;;;;57.63;47.67;;;;;;;-0.70;74.02;94566.53;5074905;28;20193;-70
2021/12/09 05:24:54;;;;;;;52.90;44.53;;;;;;;-0.71;73.71;94562.22;5091710;28;20267;-70
2021/12/09 05:27:21;;;;;;;52.55;43.78;;;;;;;-0.71;73.98;94554.09;5075794;28;20247;-70
2021/12/09 05:30:02;;;;;;;41.15;34.95;;;;;;;-0.72;74.76;94556.00;5075773;28;20209;-70
2021/12/09 05:32:30;;;;;;;39.20;31.10;;;;;;;-0.66;74.68;94559.44;5074921;28;20201;-70
2021/12/09 05:34:57;;;;;;;40.38;35.05;;;;;;;-0.67;74.98;94555.91;5091540;28;20224;-70
2021/12/09 05:37:26;;;;;;;45.60;39.60;;;;;;;-0.66;75.08;94546.69;5075157;28;20504;-70
2021/12/09 05:39:56;;;;;;;43.63;36.92;;;;;;;-0.68;75.00;94550.81;5075324;28;20182;-70
2021/12/09 05:42:24;;;;;;;43.85;36.95;;;;;;;-0.67;75.13;94553.22;5074994;28;20197;-70
2021/12/09 05:44:52;;;;;;;44.28;36.00;;;;;;;-0.65;75.20;94558.34;5074999;28;20561;-70
2021/12/09 05:47:18;;;;;;;40.95;33.72;;;;;;;-0.62;74.82;94555.03;5075338;28;20208;-70
2021/12/09 05:49:48;;;;;;;39.28;33.33;;;;;;;-0.65;75.44;94558.34;5074980;28;20640;-70
2021/12/09 05:52:16;;;;;;;39.58;33.08;;;;;;;-0.57;75.20;94560.38;5074275;28;20201;-69
2021/12/09 05:54:43;;;;;;;39.85;32.67;;;;;;;-0.54;75.06;94562.50;5074465;28;20186;-69
2021/12/09 05:57:10;;;;;;;37.97;32.80;;;;;;;-0.53;74.90;94573.03;5075218;28;20193;-69
2021/12/09 05:59:40;;;;;;;39.80;34.30;;;;;;;-0.54;74.89;94574.16;5091161;28;20205;-66
2021/12/09 06:02:08;;;;;;;44.47;39.78;;;;;;;-0.50;75.07;94567.03;5075183;28;20284;-69
2021/12/09 06:04:35;;;;;;;46.80;41.90;;;;;;;-0.45;74.27;94570.75;5075146;28;20181;-70
2021/12/09 06:07:04;;;;;;;48.30;43.33;;;;;;;-0.41;74.46;94574.47;5073896;28;20427;-68
2021/12/09 06:09:31;;;;;;;56.55;50.72;;;;;;;-0.36;74.04;94569.81;5075179;28;20236;-69
2021/12/09 06:11:58;;;;;;;60.33;54.15;;;;;;;-0.38;73.64;94574.69;5073948;28;20196;-69
2021/12/09 06:14:25;;;;;;;69.10;62.10;;;;;;;-0.48;74.12;94577.56;5073818;28;20205;-69
2021/12/09 06:16:52;;;;;;;65.93;59.20;;;;;;;-0.54;74.30;94573.34;5074551;28;20228;-69
2021/12/09 06:19:21;;;;;;;68.68;61.45;;;;;;;-0.54;74.03;94576.06;5074625;28;20189;-70
2021/12/09 06:21:48;;;;;;;66.15;59.55;;;;;;;-0.51;74.08;94578.16;5074415;28;20193;-71
2021/12/09 06:24:18;;;;;;;66.47;59.67;;;;;;;-0.50;74.05;94574.38;5078214;28;20207;-70
2021/12/09 06:26:45;;;;;;;65.07;58.47;;;;;;;-0.47;73.94;94581.06;5078147;28;20416;-70
2021/12/09 06:29:12;;;;;;;63.35;57.10;;;;;;;-0.41;74.08;94583.41;5077301;28;20438;-70
2021/12/09 06:31:39;;;;;;;57.53;51.72;;;;;;;-0.37;73.76;94589.03;5079597;28;20189;-69
2021/12/09 06:34:05;;;;;;;57.40;51.20;;;;;;;-0.41;73.57;94582.63;5078889;28;20204;-70
2021/12/09 06:36:32;;;;;;;53.72;47.80;;;;;;;-0.45;74.16;94581.59;5078829;28;20199;-70
2021/12/09 06:38:59;;;;;;;53.33;47.85;;;;;;;-0.44;74.21;94580.50;5078175;28;20215;-70
2021/12/09 06:41:27;;;;;;;61.47;55.50;;;;;;;-0.41;73.98;94579.91;5079138;28;20189;-70
2021/12/09 06:43:54;;;;;;;56.13;50.63;;;;;;;-0.41;74.16;94575.28;5078839;28;20188;-70
2021/12/09 06:46:21;;;;;;;55.38;49.88;;;;;;;-0.44;73.91;94578.56;5078771;28;20602;-70
2021/12/09 06:48:47;;;;;;;53.33;47.72;;;;;;;-0.42;74.29;94578.31;5077889;28;20200;-70
2021/12/09 06:51:14;;;;;;;56.00;50.20;;;;;;;-0.39;74.18;94569.59;5095165;28;20193;-70
2021/12/09 06:53:41;;;;;;;60.00;53.83;;;;;;;-0.39;74.00;94572.28;5079206;28;20243;-69
2021/12/09 06:56:08;;;;;;;61.97;55.83;;;;;;;-0.37;73.70;94575.50;5078190;28;20192;-70
2021/12/09 06:58:36;;;;;;;61.72;55.55;;;;;;;-0.40;74.08;94571.50;5078403;28;20197;-70
2021/12/09 07:01:05;;;;;;;62.22;56.20;;;;;;;-0.44;74.43;94573.16;5078546;28;20280;-69
2021/12/09 07:03:32;;;;;;;64.10;57.38;;;;;;;-0.46;74.39;94564.53;5077315;28;20205;-70
2021/12/09 07:06:05;;;;;;;68.13;61.33;;;;;;;-0.49;74.40;94567.84;5078751;28;20192;-70
2021/12/09 07:08:32;;;;;;;68.03;61.15;;;;;;;-0.38;74.26;94579.31;5077695;28;20197;-70
2021/12/09 07:10:59;;;;;;;79.85;71.82;;;;;;;-0.36;73.94;94567.09;5093896;28;20262;-70
2021/12/09 07:13:25;;;;;;;87.47;78.80;;;;;;;-0.36;73.66;94564.38;5077749;28;20287;-70
2021/12/09 07:15:53;;;;;;;105.75;94.95;;;;;;;-0.28;73.68;94562.91;5077492;28;20205;-70
2021/12/09 07:18:23;;;;;;;108.75;97.85;;;;;;;-0.33;73.74;94571.09;5078053;28;20185;-70
2021/12/09 07:20:50;;;;;;;86.57;77.95;;;;;;;-0.37;74.07;94572.78;5077344;28;20196;-70
2021/12/09 07:23:16;;;;;;;84.70;76.15;;;;;;;-0.39;73.99;94575.00;5094854;28;20200;-70
2021/12/09 07:25:43;;;;;;;87.25;78.50;;;;;;;-0.33;73.89;94571.09;5078306;28;20181;-70
2021/12/09 07:28:10;;;;;;;82.72;74.57;;;;;;;-0.31;73.80;94568.91;5078147;28;20189;-70
2021/12/09 07:30:37;;;;;;;81.25;73.15;;;;;;;-0.34;73.76;94555.94;5078459;28;20211;-70
2021/12/09 07:33:05;;;;;;;79.00;71.10;;;;;;;-0.33;74.00;94566.50;5077255;28;20206;-70
2021/12/09 07:35:32;;;;;;;69.80;62.67;;;;;;;-0.29;73.69;94561.25;5076987;28;20269;-70
2021/12/09 07:38:00;;;;;;;65.78;58.97;;;;;;;-0.29;73.49;94559.38;5078215;28;20185;-70
2021/12/09 07:40:27;;;;;;;63.08;56.70;;;;;;;-0.32;73.85;94559.16;5076903;28;20296;-71
2021/12/09 07:42:54;;;;;;;63.72;57.08;;;;;;;-0.36;73.75;94560.88;5093893;28;20205;-70
2021/12/09 07:45:21;;;;;;;65.40;58.72;;;;;;;-0.34;73.75;94561.38;5077141;28;20205;-70
2021/12/09 07:47:48;;;;;;;63.50;56.78;;;;;;;-0.33;74.17;94561.09;5076795;28;20200;-70
2021/12/09 07:50:20;;;;;;;66.50;59.70;;;;;;;-0.25;73.68;94559.59;5076281;28;20213;-70
2021/12/09 07:52:50;;;;;;;67.15;60.10;;;;;;;-0.17;74.24;94560.81;5077267;28;20233;-70
2021/12/09 07:55:18;;;;;;;75.55;67.85;;;;;;;-0.05;74.19;94548.38;5077594;28;20173;-70
2021/12/09 07:57:45;;;;;;;80.70;72.38;;;;;;;-0.01;73.92;94565.66;5077621;28;20185;-71
2021/12/09 08:00:15;;;;;;;87.68;78.93;;;;;;;0.03;73.59;94562.34;5077830;28;20185;-69
2021/12/09 08:02:42;;;;;;;94.75;85.20;;;;;;;0.06;73.34;94548.19;5078011;28;20181;-70
2021/12/09 08:05:10;;;;;;;95.45;85.65;;;;;;;0.13;73.16;94535.84;5076858;28;20640;-71
2021/12/09 08:07:41;;;;;;;75.50;67.40;;;;;;;0.14;73.24;94544.78;5077014;28;20199;-70
2021/12/09 08:10:10;;;;;;;82.07;73.38;;;;;;;0.21;72.84;94532.44;5076466;28;20541;-70
2021/12/09 08:12:38;;;;;;;73.40;65.70;;;;;;;0.21;73.22;94554.13;5093364;28;20193;-70
2021/12/09 08:15:06;;;;;;;70.40;62.85;;;;;;;0.17;72.76;94550.41;5077424;28;20189;-70
2021/12/09 08:17:57;;;;;;;70.78;63.20;;;;;;;0.18;72.60;94553.94;5076927;28;20189;-70
2021/12/09 08:20:23;;;;;;;72.00;64.50;;;;;;;0.16;73.21;94548.81;5076489;28;20578;-70
2021/12/09 08:22:52;;;;;;;76.32;68.30;;;;;;;0.14;72.94;94552.91;5076479;28;20201;-70
2021/12/09 08:25:18;;;;;;;84.10;75.20;;;;;;;0.16;73.15;94551.53;5093644;28;20189;-70
2021/12/09 08:27:45;;;;;;;66.75;59.75;;;;;;;0.23;72.97;94559.28;5077183;28;20212;-70
2021/12/09 08:30:14;;;;;;;67.85;60.42;;;;;;;0.29;72.80;94541.81;5077034;28;20212;-70
2021/12/09 08:32:41;;;;;;;75.53;67.70;;;;;;;0.31;72.56;94565.91;5076925;28;20200;-70
2021/12/09 08:35:08;;;;;;;76.43;68.35;;;;;;;0.33;72.63;94545.53;5076400;28;20283;-70
2021/12/09 08:37:35;;;;;;;85.32;76.22;;;;;;;0.33;72.67;94544.72;5076158;28;20196;-70
2021/12/09 08:40:05;;;;;;;85.13;75.93;;;;;;;0.30;72.68;94524.41;5076960;28;20177;-70
2021/12/09 08:42:32;;;;;;;89.20;78.72;;;;;;;0.32;73.17;94549.31;5076757;28;20192;-68
2021/12/09 08:44:59;;;;;;;81.15;72.60;;;;;;;0.38;73.00;94553.53;5076174;28;20189;-69
2021/12/09 08:47:25;;;;;;;65.40;58.50;;;;;;;0.39;72.89;94538.06;5076338;28;20188;-69
2021/12/09 08:49:52;;;;;;;63.88;57.35;;;;;;;0.37;72.84;94526.72;5076043;28;20284;-69
2021/12/09 08:52:19;;;;;;;59.72;53.38;;;;;;;0.37;72.61;94534.88;5076582;28;20211;-70
2021/12/09 08:54:48;;;;;;;61.25;54.75;;;;;;;0.39;73.01;94540.78;5076440;28;20204;-69
2021/12/09 08:57:16;;;;;;;59.08;52.78;;;;;;;0.43;72.85;94523.59;5075552;28;20208;-69
2021/12/09 08:59:43;;;;;;;55.20;49.60;;;;;;;0.51;73.00;94524.00;5075313;28;20292;-70
2021/12/09 09:02:09;;;;;;;58.72;52.72;;;;;;;0.58;72.39;94543.38;5092347;28;20197;-69
2021/12/09 09:04:36;;;;;;;56.70;50.75;;;;;;;0.57;72.19;94492.94;5076294;28;20191;-69
2021/12/09 09:07:04;;;;;;;56.25;50.40;;;;;;;0.68;72.52;94505.97;5075805;28;20201;-69
2021/12/09 09:09:34;;;;;;;55.83;49.92;;;;;;;0.68;73.09;94516.03;5075815;28;20185;-69
2021/12/09 09:12:02;;;;;;;55.88;50.03;;;;;;;0.70;72.74;94509.22;5075895;28;20561;-70
2021/12/09 09:14:30;;;;;;;57.80;51.78;;;;;;;0.76;72.77;94514.50;5092144;28;20211;-70
2021/12/09 09:16:57;;;;;;;56.65;50.72;;;;;;;0.83;72.30;94450.53;5092248;28;20197;-69
2021/12/09 09:19:24;;;;;;;56.83;50.97;;;;;;;0.79;72.21;94512.00;5076128;28;20204;-69
2021/12/09 09:21:51;;;;;;;54.20;48.70;;;;;;;0.81;72.17;94468.28;5074770;28;20189;-69
2021/12/09 09:24:18;;;;;;;55.70;49.92;;;;;;;0.92;71.88;94500.31;5075894;28;20177;-70
2021/12/09 09:26:45;;;;;;;53.92;48.35;;;;;;;0.98;71.27;94463.00;5074897;28;20201;-69
2021/12/09 09:29:12;;;;;;;53.05;47.47;;;;;;;0.95;71.63;94490.75;5075261;28;20602;-69
2021/12/09 09:31:41;;;;;;;53.70;48.03;;;;;;;1.01;71.19;94473.22;5076099;28;20257;-70
2021/12/09 09:34:08;;;;;;;53.28;47.72;;;;;;;1.07;71.50;94484.78;5076057;28;20236;-69
2021/12/09 09:36:39;;;;;;;52.13;46.72;;;;;;;1.16;71.41;94485.63;5074889;28;20213;-68
2021/12/09 09:39:17;;;;;;;49.80;44.72;;;;;;;1.17;71.01;94482.63;5075801;28;20181;-69
2021/12/09 09:41:45;;;;;;;49.97;44.88;;;;;;;1.30;71.35;94469.28;5074595;28;20220;-70
2021/12/09 09:44:15;;;;;;;53.42;47.83;;;;;;;1.53;71.75;94475.53;5075733;28;20631;-69
2021/12/09 09:46:44;;;;;;;52.03;46.72;;;;;;;1.68;70.64;94454.19;5074745;28;20224;-69
2021/12/09 09:49:12;;;;;;;50.60;45.60;;;;;;;1.73;70.15;94453.25;5074881;28;20211;-68
2021/12/09 09:51:40;;;;;;;51.72;46.25;;;;;;;1.83;69.82;94435.88;5075369;28;20209;-69
2021/12/09 09:54:07;;;;;;;51.83;46.25;;;;;;;1.90;69.73;94444.38;5075484;28;20573;-70
2021/12/09 09:56:40;;;;;;;52.70;47.33;;;;;;;2.05;70.31;94426.84;5074465;28;20205;-70
2021/12/09 09:59:08;;;;;;;51.75;46.33;;;;;;;2.24;69.75;94429.28;5075191;28;20181;-70
2021/12/09 10:01:37;;;;;;;51.97;46.47;;;;;;;2.29;68.62;94437.34;5075382;28;20197;-71
2021/12/09 10:04:14;;;;;;;54.20;47.05;;;;;;;2.41;68.48;94416.53;5075433;28;20189;-69
2021/12/09 10:06:44;;;;;;;53.38;47.63;;;;;;;2.35;68.19;94425.97;5074804;28;20181;-68
2021/12/09 10:09:12;;;;;;;53.50;47.63;;;;;;;2.40;68.93;94430.47;5075246;28;20192;-70
2021/12/09 10:11:40;;;;;;;49.60;44.22;;;;;;;2.39;68.13;94393.47;5073884;28;20216;-70
2021/12/09 10:14:14;;;;;;;52.42;47.05;;;;;;;2.50;68.11;94423.91;5074484;28;20212;-71
2021/12/09 10:16:42;;;;;;;52.28;46.85;;;;;;;2.57;67.60;94416.06;5075226;28;20550;-70
2021/12/09 10:19:22;;;;;;;57.47;51.40;;;;;;;2.57;67.48;94416.06;5074397;28;20197;-70
2021/12/09 10:21:50;;;;;;;55.83;50.08;;;;;;;2.56;67.60;94415.28;5091157;28;20193;-70
2021/12/09 10:24:17;;;;;;;60.45;54.28;;;;;;;2.55;68.09;94410.97;5075398;28;20189;-70
2021/12/09 10:26:45;;;;;;;64.40;57.53;;;;;;;2.62;67.63;94397.69;5074332;28;20264;-70
2021/12/09 10:29:18;;;;;;;75.30;67.53;;;;;;;2.73;68.79;94389.19;5074731;28;20498;-69
2021/12/09 10:31:48;;;;;;;74.53;67.22;;;;;;;2.83;68.94;94421.53;5075797;28;20282;-70
2021/12/09 10:34:27;;;;;;;73.03;65.65;;;;;;;2.82;68.08;94409.06;5074145;28;20197;-70
2021/12/09 10:37:01;;;;;;;72.43;65.03;;;;;;;2.87;68.03;94409.72;5074965;28;20188;-70
2021/12/09 10:39:36;;;;;;;78.97;70.88;;;;;;;2.89;67.68;94390.31;5091023;28;20375;-69
2021/12/09 10:42:06;;;;;;;77.88;70.07;;;;;;;2.95;68.08;94391.75;5074486;28;20199;-70
2021/12/09 10:44:39;;;;;;;77.97;70.28;;;;;;;3.04;67.65;94381.66;5074521;28;20185;-70
2021/12/09 10:47:13;;;;;;;71.03;64.15;;;;;;;3.13;68.05;94378.94;5075052;28;20185;-69
2021/12/09 10:49:55;;;;;;;74.85;67.22;;;;;;;3.20;66.70;94383.91;5074369;28;20200;-69
2021/12/09 10:52:35;;;;;;;74.57;67.00;;;;;;;3.15;66.68;94387.56;5074381;28;20212;-70
2021/12/09 10:55:07;;;;;;;75.13;67.50;;;;;;;3.12;66.59;94375.41;5075036;28;20212;-70
2021/12/09 10:57:36;;;;;;;72.65;65.35;;;;;;;3.09;67.81;94380.69;5075354;28;20189;-69
2021/12/09 11:00:16;;;;;;;76.60;68.63;;;;;;;3.14;67.45;94377.78;5073862;28;20189;-70
2021/12/09 11:02:59;;;;;;;70.32;63.05;;;;;;;3.30;68.28;94370.69;5075183;28;20197;-70
2021/12/09 11:05:27;;;;;;;81.57;73.15;;;;;;;3.37;67.78;94365.56;5073747;28;20201;-69
2021/12/09 11:07:54;;;;;;;89.43;80.03;;;;;;;3.50;67.58;94358.31;5091319;28;20190;-69
2021/12/09 11:10:23;;;;;;;99.85;89.68;;;;;;;3.75;67.08;94351.19;5077412;28;20222;-69
2021/12/09 11:12:52;;;;;;;114.47;102.45;;;;;;;3.80;65.83;94361.91;5077570;28;20204;-68
2021/12/09 11:15:20;;;;;;;108.03;97.38;;;;;;;3.75;65.60;94366.75;5077804;28;20304;-69
2021/12/09 11:17:50;;;;;;;95.35;85.85;;;;;;;3.62;66.38;94360.38;5078577;28;20186;-69
2021/12/09 11:20:45;;;;;;;90.90;81.72;;;;;;;3.70;67.70;94366.91;5078930;28;20189;-69
2021/12/09 11:23:30;;;;;;;85.80;77.18;;;;;;;3.77;66.66;94372.66;5094534;28;20197;-69
2021/12/09 11:26:00;;;;;;;83.25;74.55;;;;;;;3.76;66.24;94357.44;5078229;28;20264;-69